sensor_id;sensor_type;location;lat;lon;timestamp;temperature;humidity
18446;DHT22;9352;50.888;4.466;2023-03-14T00:00:06;11.80;99.90
18446;DHT22;9352;50.888;4.466;2023-03-14T00:02:34;11.80;99.90
18446;DHT22;9352;50.888;4.466;2023-03-14T00:05:01;11.70;99.90
18446;DHT22;9352;50.888;4.466;2023-03-14T00:07:33;11.70;99.90
18446;DHT22;9352;50.888;4.466;2023-03-14T00:10:02;11.70;99.90
18446;DHT22;9352;50.888;4.466;2023-03-14T00:12:30;11.60;99.90
18446;DHT22;9352;50.888;4.466;2023-03-14T00:14:57;11.50;99.90
18446;DHT22;9352;50.888;4.466;2023-03-14T00:17:25;11.50;99.90
18446;DHT22;9352;50.888;4.466;2023-03-14T00:19:52;11.40;99.90
18446;DHT22;9352;50.888;4.466;2023-03-14T00:22:19;11.40;99.90
18446;DHT22;9352;50.888;4.466;2023-03-14T00:24:48;11.40;99.90
18446;DHT22;9352;50.888;4.466;2023-03-14T00:27:15;11.40;99.90
18446;DHT22;9352;50.888;4.466;2023-03-14T00:29:42;11.40;99.90
18446;DHT22;9352;50.888;4.466;2023-03-14T00:32:10;11.30;99.90
18446;DHT22;9352;50.888;4.466;2023-03-14T00:34:37;11.30;99.90
18446;DHT22;9352;50.888;4.466;2023-03-14T00:37:04;11.30;99.90
18446;DHT22;9352;50.888;4.466;2023-03-14T00:39:30;11.30;99.90
18446;DHT22;9352;50.888;4.466;2023-03-14T00:41:59;11.30;99.90
18446;DHT22;9352;50.888;4.466;2023-03-14T00:44:26;11.30;99.90
18446;DHT22;9352;50.888;4.466;2023-03-14T00:46:52;11.20;99.90
18446;DHT22;9352;50.888;4.466;2023-03-14T00:49:19;11.20;99.90
18446;DHT22;9352;50.888;4.466;2023-03-14T00:51:46;11.20;99.90
18446;DHT22;9352;50.888;4.466;2023-03-14T00:54:13;11.20;99.90
18446;DHT22;9352;50.888;4.466;2023-03-14T00:56:40;11.30;99.90
18446;DHT22;9352;50.888;4.466;2023-03-14T00:59:08;11.30;99.90
18446;DHT22;9352;50.888;4.466;2023-03-14T01:01:35;11.30;99.90
18446;DHT22;9352;50.888;4.466;2023-03-14T01:04:02;11.30;99.90
18446;DHT22;9352;50.888;4.466;2023-03-14T01:06:29;11.20;99.90
18446;DHT22;9352;50.888;4.466;2023-03-14T01:08:57;11.20;99.90
18446;DHT22;9352;50.888;4.466;2023-03-14T01:11:25;11.20;99.90
18446;DHT22;9352;50.888;4.466;2023-03-14T01:13:53;11.20;99.90
18446;DHT22;9352;50.888;4.466;2023-03-14T01:16:22;11.20;99.90
18446;DHT22;9352;50.888;4.466;2023-03-14T01:18:49;11.20;99.90
18446;DHT22;9352;50.888;4.466;2023-03-14T01:21:19;11.20;99.90
18446;DHT22;9352;50.888;4.466;2023-03-14T01:23:47;11.30;99.90
18446;DHT22;9352;50.888;4.466;2023-03-14T01:26:16;11.20;99.90
18446;DHT22;9352;50.888;4.466;2023-03-14T01:28:45;11.20;99.90
18446;DHT22;9352;50.888;4.466;2023-03-14T01:31:13;11.20;99.90
18446;DHT22;9352;50.888;4.466;2023-03-14T01:33:41;11.20;99.90
18446;DHT22;9352;50.888;4.466;2023-03-14T01:36:10;11.20;99.90
18446;DHT22;9352;50.888;4.466;2023-03-14T01:38:38;11.20;99.90
18446;DHT22;9352;50.888;4.466;2023-03-14T01:41:07;11.10;99.90
18446;DHT22;9352;50.888;4.466;2023-03-14T01:43:35;11.10;99.90
18446;DHT22;9352;50.888;4.466;2023-03-14T01:46:20;11.00;99.90
18446;DHT22;9352;50.888;4.466;2023-03-14T01:48:55;11.00;99.90
18446;DHT22;9352;50.888;4.466;2023-03-14T01:51:29;10.90;99.90
18446;DHT22;9352;50.888;4.466;2023-03-14T01:54:02;10.90;99.90
18446;DHT22;9352;50.888;4.466;2023-03-14T01:56:31;11.00;99.90
18446;DHT22;9352;50.888;4.466;2023-03-14T01:59:00;11.00;99.90
18446;DHT22;9352;50.888;4.466;2023-03-14T02:01:29;11.00;99.90
18446;DHT22;9352;50.888;4.466;2023-03-14T02:04:00;11.00;99.90
18446;DHT22;9352;50.888;4.466;2023-03-14T02:06:32;11.00;99.90
18446;DHT22;9352;50.888;4.466;2023-03-14T02:09:00;11.00;99.90
18446;DHT22;9352;50.888;4.466;2023-03-14T02:11:29;11.00;99.90
18446;DHT22;9352;50.888;4.466;2023-03-14T02:13:57;11.00;99.90
18446;DHT22;9352;50.888;4.466;2023-03-14T02:16:24;11.00;99.90
18446;DHT22;9352;50.888;4.466;2023-03-14T02:18:52;10.90;99.90
18446;DHT22;9352;50.888;4.466;2023-03-14T02:21:24;10.80;99.90
18446;DHT22;9352;50.888;4.466;2023-03-14T02:23:59;10.70;99.90
18446;DHT22;9352;50.888;4.466;2023-03-14T02:26:34;10.60;99.90
18446;DHT22;9352;50.888;4.466;2023-03-14T02:29:04;10.40;99.90
18446;DHT22;9352;50.888;4.466;2023-03-14T02:31:31;10.40;99.90
18446;DHT22;9352;50.888;4.466;2023-03-14T02:33:59;10.30;99.90
18446;DHT22;9352;50.888;4.466;2023-03-14T02:36:27;10.30;99.90
18446;DHT22;9352;50.888;4.466;2023-03-14T02:39:00;10.10;99.90
18446;DHT22;9352;50.888;4.466;2023-03-14T02:41:31;10.10;99.90
18446;DHT22;9352;50.888;4.466;2023-03-14T02:43:58;10.00;99.90
18446;DHT22;9352;50.888;4.466;2023-03-14T02:46:26;10.00;99.90
18446;DHT22;9352;50.888;4.466;2023-03-14T02:48:56;10.00;99.90
18446;DHT22;9352;50.888;4.466;2023-03-14T02:51:26;10.00;99.90
18446;DHT22;9352;50.888;4.466;2023-03-14T02:53:54;10.00;99.90
18446;DHT22;9352;50.888;4.466;2023-03-14T02:56:21;10.00;99.90
18446;DHT22;9352;50.888;4.466;2023-03-14T02:58:48;10.00;99.90
18446;DHT22;9352;50.888;4.466;2023-03-14T03:01:15;10.00;99.90
18446;DHT22;9352;50.888;4.466;2023-03-14T03:03:43;10.00;99.90
18446;DHT22;9352;50.888;4.466;2023-03-14T03:06:10;10.00;99.90
18446;DHT22;9352;50.888;4.466;2023-03-14T03:08:37;10.00;99.90
18446;DHT22;9352;50.888;4.466;2023-03-14T03:11:05;10.00;99.90
18446;DHT22;9352;50.888;4.466;2023-03-14T03:13:32;10.10;99.90
18446;DHT22;9352;50.888;4.466;2023-03-14T03:15:58;10.10;99.90
18446;DHT22;9352;50.888;4.466;2023-03-14T03:18:25;10.10;99.90
18446;DHT22;9352;50.888;4.466;2023-03-14T03:20:54;10.10;99.90
18446;DHT22;9352;50.888;4.466;2023-03-14T03:23:21;10.10;99.90
18446;DHT22;9352;50.888;4.466;2023-03-14T03:25:48;10.20;99.90
18446;DHT22;9352;50.888;4.466;2023-03-14T03:28:16;10.20;99.90
18446;DHT22;9352;50.888;4.466;2023-03-14T03:30:43;10.20;99.90
18446;DHT22;9352;50.888;4.466;2023-03-14T03:33:11;10.20;99.90
18446;DHT22;9352;50.888;4.466;2023-03-14T03:35:45;10.30;99.90
18446;DHT22;9352;50.888;4.466;2023-03-14T03:38:14;10.30;99.90
18446;DHT22;9352;50.888;4.466;2023-03-14T03:40:42;10.30;99.90
18446;DHT22;9352;50.888;4.466;2023-03-14T03:43:09;10.30;99.90
18446;DHT22;9352;50.888;4.466;2023-03-14T03:45:36;10.40;99.90
18446;DHT22;9352;50.888;4.466;2023-03-14T03:48:03;10.40;99.90
18446;DHT22;9352;50.888;4.466;2023-03-14T03:50:30;10.40;99.90
18446;DHT22;9352;50.888;4.466;2023-03-14T03:52:57;10.40;99.90
18446;DHT22;9352;50.888;4.466;2023-03-14T03:55:25;10.40;99.90
18446;DHT22;9352;50.888;4.466;2023-03-14T03:57:53;10.40;99.90
18446;DHT22;9352;50.888;4.466;2023-03-14T04:00:20;10.40;99.90
18446;DHT22;9352;50.888;4.466;2023-03-14T04:02:47;10.40;99.90
18446;DHT22;9352;50.888;4.466;2023-03-14T04:05:14;10.40;99.90
18446;DHT22;9352;50.888;4.466;2023-03-14T04:07:41;10.30;99.90
18446;DHT22;9352;50.888;4.466;2023-03-14T04:10:09;10.30;99.90
18446;DHT22;9352;50.888;4.466;2023-03-14T04:12:37;10.40;99.90
18446;DHT22;9352;50.888;4.466;2023-03-14T04:15:05;10.40;99.90
18446;DHT22;9352;50.888;4.466;2023-03-14T04:17:32;10.40;99.90
18446;DHT22;9352;50.888;4.466;2023-03-14T04:19:59;10.50;99.90
18446;DHT22;9352;50.888;4.466;2023-03-14T04:22:26;10.50;99.90
18446;DHT22;9352;50.888;4.466;2023-03-14T04:24:52;10.50;99.90
18446;DHT22;9352;50.888;4.466;2023-03-14T04:27:19;10.60;99.90
18446;DHT22;9352;50.888;4.466;2023-03-14T04:29:48;10.60;99.90
18446;DHT22;9352;50.888;4.466;2023-03-14T04:32:15;10.60;99.90
18446;DHT22;9352;50.888;4.466;2023-03-14T04:34:41;10.60;99.90
18446;DHT22;9352;50.888;4.466;2023-03-14T04:37:08;10.60;99.90
18446;DHT22;9352;50.888;4.466;2023-03-14T04:39:35;10.60;99.90
18446;DHT22;9352;50.888;4.466;2023-03-14T04:42:02;10.70;99.90
18446;DHT22;9352;50.888;4.466;2023-03-14T04:44:29;10.60;99.90
18446;DHT22;9352;50.888;4.466;2023-03-14T04:46:58;10.70;99.90
18446;DHT22;9352;50.888;4.466;2023-03-14T04:49:25;10.70;99.90
18446;DHT22;9352;50.888;4.466;2023-03-14T04:51:51;10.70;99.90
18446;DHT22;9352;50.888;4.466;2023-03-14T04:54:18;10.70;99.90
18446;DHT22;9352;50.888;4.466;2023-03-14T04:56:45;10.70;99.90
18446;DHT22;9352;50.888;4.466;2023-03-14T04:59:12;10.70;99.90
18446;DHT22;9352;50.888;4.466;2023-03-14T05:01:39;10.70;99.90
18446;DHT22;9352;50.888;4.466;2023-03-14T05:04:08;10.80;99.90
18446;DHT22;9352;50.888;4.466;2023-03-14T05:06:34;10.80;99.90
18446;DHT22;9352;50.888;4.466;2023-03-14T05:09:01;10.80;99.90
18446;DHT22;9352;50.888;4.466;2023-03-14T05:11:30;10.70;99.90
18446;DHT22;9352;50.888;4.466;2023-03-14T05:13:58;10.80;99.90
18446;DHT22;9352;50.888;4.466;2023-03-14T05:16:25;10.70;99.90
18446;DHT22;9352;50.888;4.466;2023-03-14T05:18:52;10.70;99.90
18446;DHT22;9352;50.888;4.466;2023-03-14T05:21:20;10.70;99.90
18446;DHT22;9352;50.888;4.466;2023-03-14T05:23:47;10.70;99.90
18446;DHT22;9352;50.888;4.466;2023-03-14T05:26:14;10.70;99.90
18446;DHT22;9352;50.888;4.466;2023-03-14T05:28:42;10.70;99.90
18446;DHT22;9352;50.888;4.466;2023-03-14T05:31:09;10.70;99.90
18446;DHT22;9352;50.888;4.466;2023-03-14T05:33:36;10.80;99.90
18446;DHT22;9352;50.888;4.466;2023-03-14T05:36:04;10.80;99.90
18446;DHT22;9352;50.888;4.466;2023-03-14T05:38:32;10.80;99.90
18446;DHT22;9352;50.888;4.466;2023-03-14T05:40:59;10.80;99.90
18446;DHT22;9352;50.888;4.466;2023-03-14T05:43:26;10.70;99.90
18446;DHT22;9352;50.888;4.466;2023-03-14T05:45:53;10.70;99.90
18446;DHT22;9352;50.888;4.466;2023-03-14T05:48:20;10.70;99.90
18446;DHT22;9352;50.888;4.466;2023-03-14T05:50:53;10.70;99.90
18446;DHT22;9352;50.888;4.466;2023-03-14T05:53:20;10.70;99.90
18446;DHT22;9352;50.888;4.466;2023-03-14T05:55:51;10.70;99.90
18446;DHT22;9352;50.888;4.466;2023-03-14T05:58:18;10.70;99.90
18446;DHT22;9352;50.888;4.466;2023-03-14T06:00:45;10.80;99.90
18446;DHT22;9352;50.888;4.466;2023-03-14T06:03:12;10.70;99.90
18446;DHT22;9352;50.888;4.466;2023-03-14T06:05:38;10.70;99.90
18446;DHT22;9352;50.888;4.466;2023-03-14T06:08:05;10.80;99.90
18446;DHT22;9352;50.888;4.466;2023-03-14T06:10:32;10.70;99.90
18446;DHT22;9352;50.888;4.466;2023-03-14T06:13:02;10.80;99.90
18446;DHT22;9352;50.888;4.466;2023-03-14T06:15:29;10.80;99.90
18446;DHT22;9352;50.888;4.466;2023-03-14T06:17:56;10.80;99.90
18446;DHT22;9352;50.888;4.466;2023-03-14T06:20:23;10.80;99.90
18446;DHT22;9352;50.888;4.466;2023-03-14T06:22:50;10.90;99.90
18446;DHT22;9352;50.888;4.466;2023-03-14T06:25:17;10.90;99.90
18446;DHT22;9352;50.888;4.466;2023-03-14T06:27:44;10.90;99.90
18446;DHT22;9352;50.888;4.466;2023-03-14T06:30:12;10.90;99.90
18446;DHT22;9352;50.888;4.466;2023-03-14T06:32:39;10.90;99.90
18446;DHT22;9352;50.888;4.466;2023-03-14T06:35:07;10.80;99.90
18446;DHT22;9352;50.888;4.466;2023-03-14T06:37:34;10.80;99.90
18446;DHT22;9352;50.888;4.466;2023-03-14T06:40:01;10.70;99.90
18446;DHT22;9352;50.888;4.466;2023-03-14T06:42:28;10.70;99.90
18446;DHT22;9352;50.888;4.466;2023-03-14T06:44:55;10.70;99.90
18446;DHT22;9352;50.888;4.466;2023-03-14T06:47:23;10.70;99.90
18446;DHT22;9352;50.888;4.466;2023-03-14T06:49:50;10.70;99.90
18446;DHT22;9352;50.888;4.466;2023-03-14T06:52:18;10.60;99.90
18446;DHT22;9352;50.888;4.466;2023-03-14T06:54:50;10.40;99.90
18446;DHT22;9352;50.888;4.466;2023-03-14T06:57:17;10.00;99.90
18446;DHT22;9352;50.888;4.466;2023-03-14T06:59:43;9.60;99.90
18446;DHT22;9352;50.888;4.466;2023-03-14T07:02:11;9.30;99.90
18446;DHT22;9352;50.888;4.466;2023-03-14T07:04:39;9.10;99.90
18446;DHT22;9352;50.888;4.466;2023-03-14T07:07:06;8.80;99.90
18446;DHT22;9352;50.888;4.466;2023-03-14T07:09:34;8.60;99.90
18446;DHT22;9352;50.888;4.466;2023-03-14T07:12:01;8.50;99.90
18446;DHT22;9352;50.888;4.466;2023-03-14T07:14:29;8.30;99.90
18446;DHT22;9352;50.888;4.466;2023-03-14T07:16:56;8.30;99.90
18446;DHT22;9352;50.888;4.466;2023-03-14T07:19:24;8.20;99.90
18446;DHT22;9352;50.888;4.466;2023-03-14T07:21:52;8.10;99.90
18446;DHT22;9352;50.888;4.466;2023-03-14T07:24:19;8.00;99.90
18446;DHT22;9352;50.888;4.466;2023-03-14T07:26:46;8.00;99.90
18446;DHT22;9352;50.888;4.466;2023-03-14T07:29:13;7.90;99.90
18446;DHT22;9352;50.888;4.466;2023-03-14T07:31:39;7.90;99.90
18446;DHT22;9352;50.888;4.466;2023-03-14T07:34:06;7.80;99.90
18446;DHT22;9352;50.888;4.466;2023-03-14T07:36:33;7.90;99.90
18446;DHT22;9352;50.888;4.466;2023-03-14T07:39:01;8.00;99.90
18446;DHT22;9352;50.888;4.466;2023-03-14T07:41:29;8.00;99.90
18446;DHT22;9352;50.888;4.466;2023-03-14T07:43:56;7.90;99.90
18446;DHT22;9352;50.888;4.466;2023-03-14T07:46:23;7.80;99.90
18446;DHT22;9352;50.888;4.466;2023-03-14T07:48:50;7.80;99.90
18446;DHT22;9352;50.888;4.466;2023-03-14T07:51:17;7.80;99.90
18446;DHT22;9352;50.888;4.466;2023-03-14T07:53:44;7.70;99.90
18446;DHT22;9352;50.888;4.466;2023-03-14T07:56:13;7.80;99.90
18446;DHT22;9352;50.888;4.466;2023-03-14T07:58:39;7.80;99.90
18446;DHT22;9352;50.888;4.466;2023-03-14T08:01:07;7.80;99.90
18446;DHT22;9352;50.888;4.466;2023-03-14T08:03:33;7.80;99.90
18446;DHT22;9352;50.888;4.466;2023-03-14T08:06:00;7.80;99.90
18446;DHT22;9352;50.888;4.466;2023-03-14T08:08:27;7.70;99.90
18446;DHT22;9352;50.888;4.466;2023-03-14T08:10:54;7.70;99.90
18446;DHT22;9352;50.888;4.466;2023-03-14T08:13:22;7.70;99.90
18446;DHT22;9352;50.888;4.466;2023-03-14T08:15:51;7.60;99.90
18446;DHT22;9352;50.888;4.466;2023-03-14T08:18:17;7.60;99.90
18446;DHT22;9352;50.888;4.466;2023-03-14T08:20:44;7.50;99.90
18446;DHT22;9352;50.888;4.466;2023-03-14T08:23:11;7.50;99.90
18446;DHT22;9352;50.888;4.466;2023-03-14T08:25:38;7.70;99.90
18446;DHT22;9352;50.888;4.466;2023-03-14T08:28:05;7.70;99.90
18446;DHT22;9352;50.888;4.466;2023-03-14T08:30:33;7.80;99.90
18446;DHT22;9352;50.888;4.466;2023-03-14T08:33:00;7.80;99.90
18446;DHT22;9352;50.888;4.466;2023-03-14T08:35:27;7.80;99.90
18446;DHT22;9352;50.888;4.466;2023-03-14T08:37:54;7.90;99.90
18446;DHT22;9352;50.888;4.466;2023-03-14T08:40:22;7.90;99.90
18446;DHT22;9352;50.888;4.466;2023-03-14T08:42:49;7.90;99.90
18446;DHT22;9352;50.888;4.466;2023-03-14T08:45:16;7.80;99.90
18446;DHT22;9352;50.888;4.466;2023-03-14T08:47:45;7.70;99.90
18446;DHT22;9352;50.888;4.466;2023-03-14T08:50:12;7.70;99.90
18446;DHT22;9352;50.888;4.466;2023-03-14T08:52:39;7.70;99.90
18446;DHT22;9352;50.888;4.466;2023-03-14T08:55:07;7.60;99.90
18446;DHT22;9352;50.888;4.466;2023-03-14T08:57:34;7.50;99.90
18446;DHT22;9352;50.888;4.466;2023-03-14T09:00:03;7.50;99.90
18446;DHT22;9352;50.888;4.466;2023-03-14T09:02:34;7.60;99.90
18446;DHT22;9352;50.888;4.466;2023-03-14T09:05:03;7.70;99.90
18446;DHT22;9352;50.888;4.466;2023-03-14T09:07:30;7.90;99.90
18446;DHT22;9352;50.888;4.466;2023-03-14T09:09:56;7.90;99.90
18446;DHT22;9352;50.888;4.466;2023-03-14T09:12:23;8.00;99.90
18446;DHT22;9352;50.888;4.466;2023-03-14T09:14:50;8.00;99.90
18446;DHT22;9352;50.888;4.466;2023-03-14T09:17:17;8.00;99.90
18446;DHT22;9352;50.888;4.466;2023-03-14T09:19:44;7.80;99.90
18446;DHT22;9352;50.888;4.466;2023-03-14T09:22:12;7.60;99.90
18446;DHT22;9352;50.888;4.466;2023-03-14T09:24:40;7.60;99.90
18446;DHT22;9352;50.888;4.466;2023-03-14T09:27:07;7.50;99.90
18446;DHT22;9352;50.888;4.466;2023-03-14T09:29:34;7.50;99.90
18446;DHT22;9352;50.888;4.466;2023-03-14T09:32:01;7.50;99.90
18446;DHT22;9352;50.888;4.466;2023-03-14T09:34:29;7.50;99.90
18446;DHT22;9352;50.888;4.466;2023-03-14T09:36:56;7.60;99.90
18446;DHT22;9352;50.888;4.466;2023-03-14T09:39:24;7.40;99.90
18446;DHT22;9352;50.888;4.466;2023-03-14T09:41:52;7.30;99.90
18446;DHT22;9352;50.888;4.466;2023-03-14T09:44:22;7.20;99.90
18446;DHT22;9352;50.888;4.466;2023-03-14T09:46:52;7.30;99.90
18446;DHT22;9352;50.888;4.466;2023-03-14T09:49:21;7.30;99.90
18446;DHT22;9352;50.888;4.466;2023-03-14T09:51:53;7.30;99.90
18446;DHT22;9352;50.888;4.466;2023-03-14T09:54:31;7.40;99.90
18446;DHT22;9352;50.888;4.466;2023-03-14T09:57:01;7.60;99.90
18446;DHT22;9352;50.888;4.466;2023-03-14T09:59:29;7.70;99.90
18446;DHT22;9352;50.888;4.466;2023-03-14T10:01:58;7.70;99.90
18446;DHT22;9352;50.888;4.466;2023-03-14T10:04:28;7.80;99.90
18446;DHT22;9352;50.888;4.466;2023-03-14T10:06:55;7.90;99.90
18446;DHT22;9352;50.888;4.466;2023-03-14T10:09:25;8.00;99.90
18446;DHT22;9352;50.888;4.466;2023-03-14T10:11:55;8.10;99.90
18446;DHT22;9352;50.888;4.466;2023-03-14T10:14:34;8.20;99.90
18446;DHT22;9352;50.888;4.466;2023-03-14T10:17:09;8.20;99.90
18446;DHT22;9352;50.888;4.466;2023-03-14T10:19:36;8.20;99.90
18446;DHT22;9352;50.888;4.466;2023-03-14T10:22:04;8.30;99.90
18446;DHT22;9352;50.888;4.466;2023-03-14T10:24:34;8.20;99.90
18446;DHT22;9352;50.888;4.466;2023-03-14T10:27:03;8.00;99.90
18446;DHT22;9352;50.888;4.466;2023-03-14T10:29:32;7.80;99.90
18446;DHT22;9352;50.888;4.466;2023-03-14T10:32:01;7.40;99.90
18446;DHT22;9352;50.888;4.466;2023-03-14T10:34:30;7.20;99.90
18446;DHT22;9352;50.888;4.466;2023-03-14T10:36:58;7.20;99.90
18446;DHT22;9352;50.888;4.466;2023-03-14T10:39:29;7.10;99.90
18446;DHT22;9352;50.888;4.466;2023-03-14T10:42:05;7.00;99.90
18446;DHT22;9352;50.888;4.466;2023-03-14T10:44:34;6.90;99.90
18446;DHT22;9352;50.888;4.466;2023-03-14T10:47:03;6.80;99.90
18446;DHT22;9352;50.888;4.466;2023-03-14T10:49:32;6.70;99.90
18446;DHT22;9352;50.888;4.466;2023-03-14T10:52:14;6.80;99.90
18446;DHT22;9352;50.888;4.466;2023-03-14T10:54:41;6.80;99.90
18446;DHT22;9352;50.888;4.466;2023-03-14T10:57:14;6.70;99.90
18446;DHT22;9352;50.888;4.466;2023-03-14T10:59:42;6.60;99.90
18446;DHT22;9352;50.888;4.466;2023-03-14T11:02:37;6.50;99.90
18446;DHT22;9352;50.888;4.466;2023-03-14T11:05:18;6.60;99.90
18446;DHT22;9352;50.888;4.466;2023-03-14T11:07:48;6.70;99.90
18446;DHT22;9352;50.888;4.466;2023-03-14T11:10:19;6.70;99.90
18446;DHT22;9352;50.888;4.466;2023-03-14T11:13:02;6.70;99.90
18446;DHT22;9352;50.888;4.466;2023-03-14T11:15:34;6.70;99.90
18446;DHT22;9352;50.888;4.466;2023-03-14T11:18:21;6.50;99.90
18446;DHT22;9352;50.888;4.466;2023-03-14T11:20:57;6.50;99.90
18446;DHT22;9352;50.888;4.466;2023-03-14T11:23:31;6.40;99.90
18446;DHT22;9352;50.888;4.466;2023-03-14T11:26:05;6.30;99.90
18446;DHT22;9352;50.888;4.466;2023-03-14T11:28:39;6.50;99.90
18446;DHT22;9352;50.888;4.466;2023-03-14T11:31:13;6.50;99.90
18446;DHT22;9352;50.888;4.466;2023-03-14T11:33:47;6.50;99.90
18446;DHT22;9352;50.888;4.466;2023-03-14T11:36:21;6.50;99.90
18446;DHT22;9352;50.888;4.466;2023-03-14T11:38:50;6.70;99.90
18446;DHT22;9352;50.888;4.466;2023-03-14T11:41:20;6.70;99.90
18446;DHT22;9352;50.888;4.466;2023-03-14T11:43:54;6.60;99.90
18446;DHT22;9352;50.888;4.466;2023-03-14T11:46:24;6.80;99.90
18446;DHT22;9352;50.888;4.466;2023-03-14T11:48:59;6.70;99.90
18446;DHT22;9352;50.888;4.466;2023-03-14T11:51:31;6.70;99.90
18446;DHT22;9352;50.888;4.466;2023-03-14T11:54:04;6.70;99.90
18446;DHT22;9352;50.888;4.466;2023-03-14T11:56:37;6.80;99.90
18446;DHT22;9352;50.888;4.466;2023-03-14T11:59:16;6.70;99.90
18446;DHT22;9352;50.888;4.466;2023-03-14T12:01:55;6.90;99.90
18446;DHT22;9352;50.888;4.466;2023-03-14T12:04:43;7.10;99.90
18446;DHT22;9352;50.888;4.466;2023-03-14T12:07:18;7.20;99.90
18446;DHT22;9352;50.888;4.466;2023-03-14T12:09:47;7.10;99.90
18446;DHT22;9352;50.888;4.466;2023-03-14T12:12:19;7.10;99.90
18446;DHT22;9352;50.888;4.466;2023-03-14T12:14:53;7.10;99.90
18446;DHT22;9352;50.888;4.466;2023-03-14T12:17:22;7.00;99.90
18446;DHT22;9352;50.888;4.466;2023-03-14T12:20:01;7.00;99.90
18446;DHT22;9352;50.888;4.466;2023-03-14T12:22:34;7.00;99.90
18446;DHT22;9352;50.888;4.466;2023-03-14T12:25:13;7.00;99.90
18446;DHT22;9352;50.888;4.466;2023-03-14T12:27:47;6.90;99.90
18446;DHT22;9352;50.888;4.466;2023-03-14T12:30:26;6.90;99.90
18446;DHT22;9352;50.888;4.466;2023-03-14T12:33:21;6.90;99.90
18446;DHT22;9352;50.888;4.466;2023-03-14T12:35:57;6.90;99.90
18446;DHT22;9352;50.888;4.466;2023-03-14T12:38:32;6.90;99.90
18446;DHT22;9352;50.888;4.466;2023-03-14T12:41:11;6.90;99.90
18446;DHT22;9352;50.888;4.466;2023-03-14T12:43:40;6.90;99.90
18446;DHT22;9352;50.888;4.466;2023-03-14T12:46:15;6.80;99.90
18446;DHT22;9352;50.888;4.466;2023-03-14T12:48:46;6.80;99.90
18446;DHT22;9352;50.888;4.466;2023-03-14T12:51:15;6.80;99.90
18446;DHT22;9352;50.888;4.466;2023-03-14T12:57:15;6.80;99.90
18446;DHT22;9352;50.888;4.466;2023-03-14T12:59:47;6.80;99.90
18446;DHT22;9352;50.888;4.466;2023-03-14T13:02:26;6.90;99.90
18446;DHT22;9352;50.888;4.466;2023-03-14T13:05:02;7.10;99.90
18446;DHT22;9352;50.888;4.466;2023-03-14T13:07:35;7.30;99.90
18446;DHT22;9352;50.888;4.466;2023-03-14T13:10:18;7.30;99.90
18446;DHT22;9352;50.888;4.466;2023-03-14T13:12:50;7.40;99.90
18446;DHT22;9352;50.888;4.466;2023-03-14T13:15:23;7.40;99.90
18446;DHT22;9352;50.888;4.466;2023-03-14T13:17:54;7.50;99.90
18446;DHT22;9352;50.888;4.466;2023-03-14T13:20:27;7.50;99.90
18446;DHT22;9352;50.888;4.466;2023-03-14T13:22:55;7.30;99.90
18446;DHT22;9352;50.888;4.466;2023-03-14T13:25:22;7.10;99.90
18446;DHT22;9352;50.888;4.466;2023-03-14T13:27:52;6.90;99.90
18446;DHT22;9352;50.888;4.466;2023-03-14T13:30:22;6.90;99.90
18446;DHT22;9352;50.888;4.466;2023-03-14T13:32:52;6.90;99.90
18446;DHT22;9352;50.888;4.466;2023-03-14T13:35:23;6.80;99.90
18446;DHT22;9352;50.888;4.466;2023-03-14T13:37:58;6.80;99.90
18446;DHT22;9352;50.888;4.466;2023-03-14T13:40:29;6.90;99.90
18446;DHT22;9352;50.888;4.466;2023-03-14T13:43:02;7.10;99.90
18446;DHT22;9352;50.888;4.466;2023-03-14T13:45:30;7.10;99.90
18446;DHT22;9352;50.888;4.466;2023-03-14T13:47:58;7.30;99.90
18446;DHT22;9352;50.888;4.466;2023-03-14T13:50:25;7.40;99.90
18446;DHT22;9352;50.888;4.466;2023-03-14T13:52:56;7.40;99.90
18446;DHT22;9352;50.888;4.466;2023-03-14T13:55:23;7.40;99.90
18446;DHT22;9352;50.888;4.466;2023-03-14T13:57:52;7.50;99.90
18446;DHT22;9352;50.888;4.466;2023-03-14T14:00:21;7.70;99.90
18446;DHT22;9352;50.888;4.466;2023-03-14T14:02:53;7.80;99.90
18446;DHT22;9352;50.888;4.466;2023-03-14T14:05:21;7.80;99.90
18446;DHT22;9352;50.888;4.466;2023-03-14T14:07:49;7.70;99.90
18446;DHT22;9352;50.888;4.466;2023-03-14T14:10:16;8.00;99.90
18446;DHT22;9352;50.888;4.466;2023-03-14T14:12:46;8.20;99.90
18446;DHT22;9352;50.888;4.466;2023-03-14T14:15:18;8.30;99.90
18446;DHT22;9352;50.888;4.466;2023-03-14T14:17:51;8.40;99.90
18446;DHT22;9352;50.888;4.466;2023-03-14T14:22:57;8.80;99.90
18446;DHT22;9352;50.888;4.466;2023-03-14T14:25:25;8.80;99.90
18446;DHT22;9352;50.888;4.466;2023-03-14T14:27:52;8.40;99.90
18446;DHT22;9352;50.888;4.466;2023-03-14T14:30:29;8.40;99.90
18446;DHT22;9352;50.888;4.466;2023-03-14T14:33:11;8.60;99.90
18446;DHT22;9352;50.888;4.466;2023-03-14T14:35:41;8.30;99.90
18446;DHT22;9352;50.888;4.466;2023-03-14T14:38:12;8.30;99.90
18446;DHT22;9352;50.888;4.466;2023-03-14T14:40:47;8.30;99.90
18446;DHT22;9352;50.888;4.466;2023-03-14T14:43:17;8.10;99.90
18446;DHT22;9352;50.888;4.466;2023-03-14T14:45:48;8.10;99.90
18446;DHT22;9352;50.888;4.466;2023-03-14T14:48:19;8.00;99.90
18446;DHT22;9352;50.888;4.466;2023-03-14T14:50:56;7.90;99.90
18446;DHT22;9352;50.888;4.466;2023-03-14T14:53:28;7.60;99.90
18446;DHT22;9352;50.888;4.466;2023-03-14T14:55:57;7.20;99.90
18446;DHT22;9352;50.888;4.466;2023-03-14T14:58:26;6.80;99.90
18446;DHT22;9352;50.888;4.466;2023-03-14T15:00:57;6.80;99.90
18446;DHT22;9352;50.888;4.466;2023-03-14T15:03:30;6.50;99.90
18446;DHT22;9352;50.888;4.466;2023-03-14T15:05:59;6.50;99.90
18446;DHT22;9352;50.888;4.466;2023-03-14T15:08:26;6.50;99.90
18446;DHT22;9352;50.888;4.466;2023-03-14T15:10:54;6.60;99.90
18446;DHT22;9352;50.888;4.466;2023-03-14T15:13:21;6.60;99.90
18446;DHT22;9352;50.888;4.466;2023-03-14T15:15:49;6.80;99.90
18446;DHT22;9352;50.888;4.466;2023-03-14T15:18:22;7.00;99.90
18446;DHT22;9352;50.888;4.466;2023-03-14T15:20:49;7.20;99.90
18446;DHT22;9352;50.888;4.466;2023-03-14T15:23:19;7.30;99.90
18446;DHT22;9352;50.888;4.466;2023-03-14T15:25:46;7.30;99.90
18446;DHT22;9352;50.888;4.466;2023-03-14T15:28:16;7.30;99.90
18446;DHT22;9352;50.888;4.466;2023-03-14T15:30:45;7.40;99.90
18446;DHT22;9352;50.888;4.466;2023-03-14T15:33:12;7.50;99.90
18446;DHT22;9352;50.888;4.466;2023-03-14T15:35:39;7.50;99.90
18446;DHT22;9352;50.888;4.466;2023-03-14T15:38:10;7.50;99.90
18446;DHT22;9352;50.888;4.466;2023-03-14T15:40:38;7.60;99.90
18446;DHT22;9352;50.888;4.466;2023-03-14T15:43:05;7.60;99.90
18446;DHT22;9352;50.888;4.466;2023-03-14T15:45:33;7.50;99.90
18446;DHT22;9352;50.888;4.466;2023-03-14T15:47:59;7.60;99.90
18446;DHT22;9352;50.888;4.466;2023-03-14T15:50:26;7.60;99.90
18446;DHT22;9352;50.888;4.466;2023-03-14T15:52:54;7.60;99.90
18446;DHT22;9352;50.888;4.466;2023-03-14T15:55:21;7.70;99.90
18446;DHT22;9352;50.888;4.466;2023-03-14T15:57:49;7.70;99.90
18446;DHT22;9352;50.888;4.466;2023-03-14T16:00:18;7.70;99.90
18446;DHT22;9352;50.888;4.466;2023-03-14T16:02:47;7.70;99.90
18446;DHT22;9352;50.888;4.466;2023-03-14T16:05:14;7.60;99.90
18446;DHT22;9352;50.888;4.466;2023-03-14T16:07:41;7.50;99.90
18446;DHT22;9352;50.888;4.466;2023-03-14T16:10:11;7.40;99.90
18446;DHT22;9352;50.888;4.466;2023-03-14T16:12:38;7.40;99.90